createdAt,value
2023-05-21T04:02:33.217Z,12.02
2023-05-21T04:04:59.682Z,12.05
2023-05-21T04:07:27.125Z,12.08
2023-05-21T04:09:53.564Z,12.08
2023-05-21T04:12:22.917Z,12.15
2023-05-21T04:14:49.450Z,12.18
2023-05-21T04:17:15.964Z,12.22
2023-05-21T04:19:42.385Z,12.26
2023-05-21T04:22:10.455Z,12.33
2023-05-21T04:24:38.065Z,12.40
2023-05-21T04:27:05.985Z,12.46
2023-05-21T04:29:32.413Z,12.56
2023-05-21T04:31:58.844Z,12.64
2023-05-21T04:34:25.806Z,12.65
2023-05-21T04:36:52.343Z,12.71
2023-05-21T04:39:18.753Z,12.76
2023-05-21T04:41:45.168Z,12.85
2023-05-21T04:44:14.859Z,12.95
2023-05-21T04:46:41.952Z,13.04
2023-05-21T04:49:10.191Z,13.14
2023-05-21T04:51:37.862Z,13.26
2023-05-21T04:54:04.342Z,13.37
2023-05-21T04:56:31.858Z,13.52
2023-05-21T04:58:58.945Z,13.64
2023-05-21T05:01:27.146Z,13.76
2023-05-21T05:03:53.869Z,13.87
2023-05-21T05:06:21.313Z,14.01
2023-05-21T05:08:47.646Z,14.15
2023-05-21T05:11:14.033Z,14.51
2023-05-21T05:13:43.809Z,14.99
2023-05-21T05:16:10.238Z,15.49
2023-05-21T05:18:36.765Z,16.13
2023-05-21T05:21:03.295Z,16.82
2023-05-21T05:23:30.043Z,17.46
2023-05-21T05:25:56.568Z,17.98
2023-05-21T05:28:23.228Z,18.21
2023-05-21T05:30:49.745Z,18.86
2023-05-21T05:33:16.288Z,19.08
2023-05-21T05:35:42.721Z,18.71
2023-05-21T05:38:09.252Z,19.50
2023-05-21T05:40:35.841Z,19.16
2023-05-21T05:43:02.332Z,19.25
2023-05-21T05:45:28.742Z,19.95
2023-05-21T05:47:55.246Z,20.00
2023-05-21T05:50:21.721Z,19.80
2023-05-21T05:52:48.102Z,20.35
2023-05-21T05:55:14.556Z,20.38
2023-05-21T06:00:10.406Z,20.91
2023-05-21T06:02:37.532Z,21.00
2023-05-21T06:05:04.204Z,20.79
2023-05-21T06:07:30.630Z,21.34
2023-05-21T06:09:57.057Z,21.96
2023-05-21T06:12:23.570Z,21.94
2023-05-21T06:14:50.907Z,22.24
2023-05-21T06:17:17.344Z,22.63
2023-05-21T06:19:45.178Z,22.73
2023-05-21T06:22:11.556Z,23.35
2023-05-21T06:24:37.968Z,23.28
2023-05-21T06:27:04.488Z,23.58
2023-05-21T06:29:30.952Z,23.33
2023-05-21T06:31:57.413Z,23.43
2023-05-21T06:34:23.830Z,23.31
2023-05-21T06:36:51.062Z,23.38
2023-05-21T06:39:18.136Z,23.74
2023-05-21T06:41:44.871Z,23.59
2023-05-21T06:44:11.309Z,24.03
2023-05-21T06:46:37.915Z,24.80
2023-05-21T06:49:06.999Z,24.08
2023-05-21T06:51:33.775Z,24.36
2023-05-21T06:54:00.198Z,24.00
2023-05-21T06:56:27.031Z,24.17
2023-05-21T06:58:54.430Z,23.74
2023-05-21T07:01:22.405Z,24.31
2023-05-21T07:03:49.643Z,24.80
2023-05-21T07:06:16.897Z,24.61
2023-05-21T07:08:43.611Z,24.16
2023-05-21T07:11:10.126Z,24.40
2023-05-21T07:13:36.687Z,24.31
2023-05-21T07:16:03.350Z,24.31
2023-05-21T07:18:30.383Z,24.93
2023-05-21T07:20:57.205Z,25.54
2023-05-21T07:23:23.644Z,24.70
2023-05-21T07:25:50.389Z,24.93
2023-05-21T07:28:16.960Z,24.45
2023-05-21T07:30:43.706Z,24.87
2023-05-21T07:33:10.172Z,23.76
2023-05-21T07:35:36.754Z,23.55
2023-05-21T07:38:03.851Z,23.40
2023-05-21T07:40:30.387Z,23.23
2023-05-21T07:42:56.880Z,23.73
2023-05-21T07:45:23.286Z,23.68
2023-05-21T07:47:49.728Z,23.30
2023-05-21T07:50:16.860Z,22.98
2023-05-21T07:52:43.357Z,23.12
2023-05-21T07:55:10.348Z,23.23
2023-05-21T07:57:36.952Z,23.26
2023-05-21T08:00:05.836Z,23.96
2023-05-21T08:02:32.309Z,23.44
2023-05-21T08:04:58.979Z,22.64
2023-05-21T08:07:25.521Z,22.95
2023-05-21T08:09:53.760Z,22.76
2023-05-21T08:12:20.233Z,23.50
2023-05-21T08:14:46.621Z,24.02
2023-05-21T08:17:13.327Z,23.92
2023-05-21T08:19:40.172Z,23.29
2023-05-21T08:22:06.634Z,23.56
2023-05-21T08:24:33.079Z,23.39
2023-05-21T08:26:59.543Z,23.31
2023-05-21T08:29:25.936Z,22.83
2023-05-21T08:31:52.355Z,23.26
2023-05-21T08:34:18.794Z,23.28
2023-05-21T08:36:46.237Z,22.72
2023-05-21T08:39:13.183Z,22.51
2023-05-21T08:41:40.051Z,22.45
2023-05-21T08:44:11.994Z,22.36
2023-05-21T08:46:41.224Z,22.06
2023-05-21T08:49:12.433Z,21.42
2023-05-21T08:51:39.552Z,21.91
2023-05-21T08:54:06.460Z,21.48
2023-05-21T08:56:33.339Z,21.46
2023-05-21T08:59:00.418Z,21.74
2023-05-21T09:01:27.655Z,21.51
2023-05-21T09:04:04.840Z,21.43
2023-05-21T09:06:40.729Z,21.39
2023-05-21T09:09:16.897Z,21.44
2023-05-21T09:11:43.800Z,21.59
2023-05-21T09:14:11.441Z,21.96
2023-05-21T09:16:37.926Z,22.11
2023-05-21T09:19:04.875Z,22.09
2023-05-21T09:21:31.675Z,21.75
2023-05-21T09:23:59.680Z,21.72
2023-05-21T09:26:26.645Z,21.86
2023-05-21T09:28:57.838Z,21.78
2023-05-21T09:31:24.587Z,22.26
2023-05-21T09:33:51.023Z,22.13
2023-05-21T09:36:20.173Z,21.99
2023-05-21T09:38:48.666Z,21.89
2023-05-21T09:41:17.449Z,21.93
2023-05-21T09:43:46.326Z,22.03
2023-05-21T09:46:13.083Z,21.80
2023-05-21T09:48:42.045Z,22.27
2023-05-21T09:51:12.506Z,22.16
2023-05-21T09:53:53.717Z,22.53
2023-05-21T09:56:29.290Z,22.54
2023-05-21T09:58:57.556Z,22.51
2023-05-21T10:01:24.743Z,22.57
2023-05-21T10:03:56.300Z,22.32
2023-05-21T10:06:33.624Z,22.28
2023-05-21T10:09:05.650Z,22.40
2023-05-21T10:11:33.676Z,22.05
2023-05-21T10:14:08.909Z,22.18
2023-05-21T10:16:36.776Z,21.98
2023-05-21T10:19:04.424Z,21.98
2023-05-21T10:21:33.201Z,22.14
2023-05-21T10:24:02.175Z,21.90
2023-05-21T10:26:29.122Z,21.96
2023-05-21T10:28:57.271Z,22.20
2023-05-21T10:31:24.766Z,21.89
2023-05-21T10:33:53.704Z,21.53
2023-05-21T10:36:20.595Z,21.69
2023-05-21T10:38:47.652Z,21.71
2023-05-21T10:41:16.017Z,21.93
2023-05-21T10:44:10.038Z,22.07
2023-05-21T10:46:57.666Z,21.92
2023-05-21T10:49:45.489Z,22.00
2023-05-21T10:52:41.325Z,21.99
2023-05-21T10:55:27.737Z,22.05
2023-05-21T10:58:03.116Z,21.90
2023-05-21T11:00:31.520Z,21.90
2023-05-21T11:02:59.548Z,21.78
2023-05-21T11:05:53.976Z,21.79
2023-05-21T11:08:26.423Z,22.05
2023-05-21T11:10:53.885Z,22.12
2023-05-21T11:13:21.780Z,22.24
2023-05-21T11:16:01.349Z,22.22
2023-05-21T11:18:30.878Z,22.16
2023-05-21T11:21:04.681Z,21.95
2023-05-21T11:23:56.970Z,21.80
2023-05-21T11:26:26.032Z,21.83
2023-05-21T11:29:04.329Z,21.86
2023-05-21T11:31:38.591Z,21.80
2023-05-21T11:34:11.769Z,21.76
2023-05-21T11:36:39.220Z,21.73
2023-05-21T11:39:14.108Z,21.80
2023-05-21T11:42:13.194Z,21.91
2023-05-21T11:44:46.158Z,22.01
2023-05-21T11:47:17.881Z,22.11
2023-05-21T11:49:45.046Z,22.28
2023-05-21T11:52:11.945Z,22.30
2023-05-21T11:54:46.246Z,22.54
2023-05-21T11:57:16.656Z,22.60
2023-05-21T11:59:43.220Z,22.52
2023-05-21T12:02:09.599Z,22.54
2023-05-21T12:04:36.539Z,22.97
2023-05-21T12:07:15.062Z,23.45
2023-05-21T12:09:45.812Z,23.92
2023-05-21T12:12:16.179Z,24.20
2023-05-21T12:14:47.799Z,24.45
2023-05-21T12:17:24.384Z,24.52
2023-05-21T12:19:53.224Z,24.36
2023-05-21T12:22:20.945Z,24.79
2023-05-21T12:24:48.437Z,25.23
2023-05-21T12:27:17.058Z,25.56
2023-05-21T12:29:45.838Z,25.97
2023-05-21T12:32:16.138Z,25.68
2023-05-21T12:34:48.768Z,25.48
2023-05-21T12:37:35.989Z,25.28
2023-05-21T12:40:09.916Z,25.09
2023-05-21T12:42:37.353Z,24.85
2023-05-21T12:45:07.912Z,24.22
2023-05-21T12:47:34.713Z,23.76
2023-05-21T12:50:08.221Z,23.63
2023-05-21T12:52:34.754Z,23.57
2023-05-21T12:55:01.247Z,23.50
2023-05-21T12:57:36.036Z,23.55
2023-05-21T13:00:06.887Z,23.40
2023-05-21T13:02:46.476Z,23.31
2023-05-21T13:05:19.917Z,23.36
2023-05-21T13:07:47.477Z,23.20
2023-05-21T13:10:16.130Z,23.38
2023-05-21T13:12:44.287Z,23.19
2023-05-21T13:15:11.560Z,22.35
2023-05-21T13:17:38.117Z,22.22
2023-05-21T13:20:20.062Z,22.24
2023-05-21T13:22:52.981Z,21.60
2023-05-21T13:25:22.620Z,20.49
2023-05-21T13:27:50.429Z,19.44
2023-05-21T13:30:17.578Z,19.41
2023-05-21T13:32:44.485Z,19.60
2023-05-21T13:35:12.116Z,19.68
2023-05-21T13:37:41.521Z,19.24
2023-05-21T13:40:15.261Z,19.23
2023-05-21T13:42:43.699Z,19.31
2023-05-21T13:45:12.014Z,19.31
2023-05-21T13:47:40.426Z,19.31
2023-05-21T13:50:08.449Z,19.34
2023-05-21T13:52:35.533Z,19.38
2023-05-21T13:55:02.159Z,19.33
2023-05-21T13:57:30.691Z,19.01
2023-05-21T13:59:57.882Z,19.08
2023-05-21T14:02:24.399Z,19.15
2023-05-21T14:04:50.986Z,18.83
2023-05-21T14:07:17.526Z,19.08
2023-05-21T14:09:44.083Z,19.16
2023-05-21T14:12:10.515Z,19.38
2023-05-21T14:14:37.923Z,19.35
2023-05-21T14:17:05.147Z,19.17
2023-05-21T14:19:31.685Z,19.46
2023-05-21T14:21:59.881Z,19.35
2023-05-21T14:24:26.305Z,19.50
2023-05-21T14:26:52.819Z,19.59
2023-05-21T14:29:19.392Z,19.93
2023-05-21T14:31:46.384Z,20.02
2023-05-21T14:34:12.891Z,20.06
2023-05-21T14:36:39.555Z,20.18
2023-05-21T14:39:06.174Z,20.45
2023-05-21T14:41:32.639Z,20.53
2023-05-21T14:43:59.126Z,20.61
2023-05-21T14:46:25.862Z,20.82
2023-05-21T14:48:53.188Z,20.97
2023-05-21T14:51:20.537Z,21.05
2023-05-21T14:53:47.593Z,21.06
2023-05-21T14:56:16.964Z,21.05
2023-05-21T14:58:44.303Z,21.18
2023-05-21T15:01:11.509Z,21.30
2023-05-21T15:03:38.929Z,21.36
2023-05-21T15:06:05.743Z,21.33
2023-05-21T15:08:33.722Z,21.40
2023-05-21T15:11:00.262Z,21.51
2023-05-21T15:13:27.427Z,21.53
2023-05-21T15:15:54.252Z,21.72
2023-05-21T15:18:21.017Z,21.69
2023-05-21T15:20:48.836Z,21.77
2023-05-21T15:23:17.616Z,21.75
2023-05-21T15:25:45.639Z,21.78
2023-05-21T15:28:12.690Z,21.87
2023-05-21T15:30:40.868Z,21.91
2023-05-21T15:33:07.688Z,21.98
2023-05-21T15:35:37.961Z,21.94
2023-05-21T15:38:05.297Z,22.08
2023-05-21T15:40:40.258Z,21.94
2023-05-21T15:43:41.068Z,21.97
2023-05-21T15:46:25.340Z,21.94
2023-05-21T15:49:55.161Z,22.13
2023-05-21T15:52:37.898Z,22.22
2023-05-21T15:55:49.677Z,22.42
2023-05-21T15:58:36.564Z,22.90
2023-05-21T16:04:07.762Z,23.03
2023-05-21T16:07:34.626Z,23.08
2023-05-21T16:10:02.688Z,23.33
2023-05-21T16:12:33.081Z,23.48
2023-05-21T16:15:19.942Z,23.52
2023-05-21T16:19:03.679Z,23.58
2023-05-21T16:21:46.080Z,24.02
2023-05-21T16:25:39.857Z,23.63
2023-05-21T16:35:09.167Z,23.64
2023-05-21T16:37:36.470Z,24.05
2023-05-21T16:43:30.076Z,23.99
2023-05-21T16:54:14.157Z,23.42
2023-05-21T17:00:38.041Z,22.91
2023-05-21T17:06:24.454Z,23.67
2023-05-21T17:17:32.985Z,22.55
2023-05-21T17:20:08.743Z,23.07
2023-05-21T17:23:04.429Z,23.03
2023-05-21T17:28:13.285Z,22.69
2023-05-21T17:30:40.837Z,22.51
2023-05-21T17:33:42.780Z,22.56
2023-05-21T17:36:12.070Z,22.36
2023-05-21T17:42:15.738Z,22.51
2023-05-21T17:44:45.220Z,22.56
2023-05-21T17:47:13.771Z,22.35
2023-05-21T17:53:21.214Z,21.73
2023-05-21T17:56:31.423Z,21.47
2023-05-21T17:59:11.403Z,21.33
2023-05-21T18:01:44.296Z,21.37
2023-05-21T18:04:12.716Z,21.21
2023-05-21T18:06:43.091Z,21.08
2023-05-21T18:09:14.564Z,20.99
2023-05-21T18:11:44.973Z,21.02
2023-05-21T18:14:27.008Z,20.90
2023-05-21T18:17:08.744Z,20.79
2023-05-21T18:19:46.594Z,20.72
2023-05-21T18:22:26.326Z,20.68
2023-05-21T18:24:56.399Z,20.64
2023-05-21T18:27:25.922Z,20.59
2023-05-21T18:29:58.113Z,20.55
2023-05-21T18:32:26.434Z,20.45
2023-05-21T18:34:58.980Z,20.41
2023-05-21T18:37:47.843Z,20.31
2023-05-21T18:40:19.978Z,20.26
2023-05-21T18:45:36.786Z,20.21
2023-05-21T18:48:12.101Z,20.14
2023-05-21T18:50:56.110Z,20.08
2023-05-21T18:56:15.053Z,20.08
2023-05-21T18:58:41.800Z,20.10
2023-05-21T19:01:13.178Z,20.00
2023-05-21T19:03:43.261Z,19.96
2023-05-21T19:06:10.158Z,19.92
2023-05-21T19:08:42.200Z,19.85
2023-05-21T19:11:09.123Z,19.82
2023-05-21T19:13:41.174Z,19.82
2023-05-21T19:16:11.123Z,19.76
2023-05-21T19:21:19.889Z,19.62
2023-05-21T19:23:53.051Z,19.52
2023-05-21T19:26:29.385Z,19.48
2023-05-21T19:28:56.672Z,19.46
2023-05-21T19:31:23.688Z,19.48
2023-05-21T19:33:51.178Z,19.41
2023-05-21T19:36:18.721Z,19.37
2023-05-21T19:38:51.423Z,19.31
2023-05-21T19:41:23.016Z,19.36
2023-05-21T19:43:52.143Z,19.23
2023-05-21T19:46:20.460Z,19.31
2023-05-21T19:48:51.906Z,19.23
2023-05-21T19:51:21.309Z,19.19
2023-05-21T19:53:47.948Z,19.10
2023-05-21T19:56:15.053Z,19.04
2023-05-21T19:58:43.785Z,19.03
